Super Jet — IINO — position and weather

sailwx.info

Track history (hours):
 
Tides and Currents Weather Stations Pressure Air Temp Water Temp Dewpoint Dewpoint Depression Visibility Wind Speed Wind Dir Waves Ship Positions

Super Jet

Last reported at 2016-Jul-30 11:33 UTC. Time now 2016-Jul-30 16:52 UTC.
Position N 40°33' E 014°14'.

Length 30 m; draft 1.4 m.

Type: High speed craft. MMSI: 247540000.

Date/timePositionNaut miles runAvg speedWind from/ knotsBaromVisibWave heightAir tempDewpointWater temp
2016-Jul-30 11:33N 40°33' E 014°14'12 0.5
2016-Jul-29 12:16N 40°46' E 014°17'4 1.2
2016-Jul-29 08:26N 40°50' E 014°16'13 0.9
2016-Jul-28 18:33N 40°38' E 014°23'13 2.2
2016-Jul-28 12:26N 40°50' E 014°16'12 0.6
2016-Jul-27 15:21N 40°38' E 014°16'6 1.8
2016-Jul-27 12:09N 40°44' E 014°17'  
2016-Jul-24 16:32N 40°50' E 014°17'7 7.4
2016-Jul-24 15:32N 40°42' E 014°16'9 9.3
2016-Jul-24 14:34N 40°33' E 014°14'14 6.3
2016-Jul-24 12:18N 40°48' E 014°17'1419.1
2016-Jul-24 11:33N 40°33' E 014°14'0 0.0
2016-Jul-24 10:33N 40°33' E 014°14'9 3.6
2016-Jul-24 08:07N 40°42' E 014°16'915.6
2016-Jul-24 07:33N 40°33' E 014°14'8 0.7
2016-Jul-23 21:16N 40°38' E 014°23'0 0.0
2016-Jul-23 20:33N 40°38' E 014°23'0 0.0
2016-Jul-23 19:18N 40°38' E 014°23'0 0.0
2016-Jul-23 17:26N 40°38' E 014°23'1113.2
2016-Jul-23 16:34N 40°48' E 014°17'5 4.9
2016-Jul-23 15:34N 40°44' E 014°17'1010.3
2016-Jul-23 14:33N 40°33' E 014°14'1715.8
2016-Jul-23 13:29N 40°50' E 014°15'0 0.1
2016-Jul-23 12:33N 40°50' E 014°15'1716.8
2016-Jul-23 11:33N 40°33' E 014°14'0 0.0
2016-Jul-23 10:33N 40°33' E 014°14'1714.0
2016-Jul-23 09:21N 40°50' E 014°15'0 0.0
2016-Jul-23 08:27N 40°50' E 014°15'1718.6
2016-Jul-23 07:32N 40°33' E 014°14'1713.7
2016-Jul-23 06:19N 40°50' E 014°15'14 6.3
2016-Jul-23 04:10N 40°38' E 014°23'0 0.0
2016-Jul-23 03:34N 40°38' E 014°23'0 0.0
2016-Jul-23 02:33N 40°38' E 014°23'0 0.0
2016-Jul-23 01:34N 40°38' E 014°23'0 0.0
2016-Jul-22 22:34N 40°38' E 014°23'0 0.0
2016-Jul-22 21:33N 40°38' E 014°23'0 0.0
2016-Jul-22 20:34N 40°38' E 014°23'0 0.0
2016-Jul-22 18:34N 40°38' E 014°23'0 0.0
2016-Jul-22 17:32N 40°38' E 014°23'1111.9
2016-Jul-22 16:34N 40°48' E 014°17'6 5.8
2016-Jul-22 15:34N 40°43' E 014°17'9 9.3
2016-Jul-22 14:33N 40°33' E 014°15'0 0.2
2016-Jul-22 13:33N 40°33' E 014°14'0 0.2
2016-Jul-22 12:34N 40°33' E 014°15'1 1.1
2016-Jul-22 11:33N 40°34' E 014°14'1 1.1
2016-Jul-22 10:34N 40°33' E 014°14'1711.9
2016-Jul-22 09:08N 40°50' E 014°15'1 1.6
2016-Jul-22 08:22N 40°50' E 014°17'1620.4
2016-Jul-22 07:33N 40°33' E 014°14'8 2.5
2016-Jul-22 04:32N 40°38' E 014°23'0 0.0
2016-Jul-22 03:32N 40°38' E 014°23'0 0.0
2016-Jul-22 02:33N 40°38' E 014°23'0 0.0
2016-Jul-22 01:31N 40°38' E 014°23'0 0.0
2016-Jul-22 00:33N 40°38' E 014°23'0 0.0
2016-Jul-21 23:31N 40°38' E 014°23'0 0.0
2016-Jul-21 20:33N 40°38' E 014°23'0 0.0
2016-Jul-21 19:10N 40°38' E 014°23'0 0.0
2016-Jul-21 18:33N 40°38' E 014°23'0 0.0
2016-Jul-21 17:33N 40°38' E 014°23'1212.0
2016-Jul-21 16:34N 40°49' E 014°17'5 5.0
2016-Jul-21 15:34N 40°44' E 014°17'1010.3
2016-Jul-21 14:33N 40°34' E 014°15'0 0.4
2016-Jul-21 13:33N 40°33' E 014°14'2 1.8
2016-Jul-21 12:34N 40°35' E 014°13'0 0.3
2016-Jul-21 11:33N 40°35' E 014°14'2 1.5
2016-Jul-21 10:34N 40°33' E 014°14'1712.9
2016-Jul-21 09:15N 40°50' E 014°15'0 0.0
2016-Jul-21 08:34N 40°50' E 014°15'1715.8
2016-Jul-21 07:30N 40°33' E 014°14'1717.6
2016-Jul-21 06:32N 40°50' E 014°15'9 8.9
2016-Jul-21 05:34N 40°43' E 014°21'5 0.5
2016-Jul-20 19:19N 40°38' E 014°23'0 0.0
2016-Jul-20 18:26N 40°38' E 014°23'0 0.0
2016-Jul-20 17:04N 40°38' E 014°23'1223.3
2016-Jul-20 16:33N 40°49' E 014°17'11 9.5
2016-Jul-20 15:25N 40°38' E 014°16'5 5.8
2016-Jul-20 14:33N 40°34' E 014°15'0 0.3
2016-Jul-20 13:34N 40°33' E 014°14'0 0.4
2016-Jul-20 12:33N 40°34' E 014°15'3 3.2
2016-Jul-20 11:33N 40°31' E 014°16'  
Track history (hours):
 
Tides and Currents Weather Stations Pressure Air Temp Water Temp Dewpoint Dewpoint Depression Visibility Wind Speed Wind Dir Waves Ship Positions

Super Jet

Last reported at 2016-Jul-30 11:33 UTC. Time now 2016-Jul-30 16:52 UTC.
Position N 40°33' E 014°14'.

Length 30 m; draft 1.4 m.

Type: High speed craft. MMSI: 247540000.

Date/timePositionNaut miles runAvg speedWind from/ knotsBaromVisibWave heightAir tempDewpointWater temp
2016-Jul-30 11:33N 40°33' E 014°14'12 0.5
2016-Jul-29 12:16N 40°46' E 014°17'4 1.2
2016-Jul-29 08:26N 40°50' E 014°16'13 0.9
2016-Jul-28 18:33N 40°38' E 014°23'13 2.2
2016-Jul-28 12:26N 40°50' E 014°16'12 0.6
2016-Jul-27 15:21N 40°38' E 014°16'6 1.8
2016-Jul-27 12:09N 40°44' E 014°17'  
2016-Jul-24 16:32N 40°50' E 014°17'7 7.4
2016-Jul-24 15:32N 40°42' E 014°16'9 9.3
2016-Jul-24 14:34N 40°33' E 014°14'14 6.3
2016-Jul-24 12:18N 40°48' E 014°17'1419.1
2016-Jul-24 11:33N 40°33' E 014°14'0 0.0
2016-Jul-24 10:33N 40°33' E 014°14'9 3.6
2016-Jul-24 08:07N 40°42' E 014°16'915.6
2016-Jul-24 07:33N 40°33' E 014°14'8 0.7
2016-Jul-23 21:16N 40°38' E 014°23'0 0.0
2016-Jul-23 20:33N 40°38' E 014°23'0 0.0
2016-Jul-23 19:18N 40°38' E 014°23'0 0.0
2016-Jul-23 17:26N 40°38' E 014°23'1113.2
2016-Jul-23 16:34N 40°48' E 014°17'5 4.9
2016-Jul-23 15:34N 40°44' E 014°17'1010.3
2016-Jul-23 14:33N 40°33' E 014°14'1715.8
2016-Jul-23 13:29N 40°50' E 014°15'0 0.1
2016-Jul-23 12:33N 40°50' E 014°15'1716.8
2016-Jul-23 11:33N 40°33' E 014°14'0 0.0
2016-Jul-23 10:33N 40°33' E 014°14'1714.0
2016-Jul-23 09:21N 40°50' E 014°15'0 0.0
2016-Jul-23 08:27N 40°50' E 014°15'1718.6
2016-Jul-23 07:32N 40°33' E 014°14'1713.7
2016-Jul-23 06:19N 40°50' E 014°15'14 6.3
2016-Jul-23 04:10N 40°38' E 014°23'0 0.0
2016-Jul-23 03:34N 40°38' E 014°23'0 0.0
2016-Jul-23 02:33N 40°38' E 014°23'0 0.0
2016-Jul-23 01:34N 40°38' E 014°23'0 0.0
2016-Jul-22 22:34N 40°38' E 014°23'0 0.0
2016-Jul-22 21:33N 40°38' E 014°23'0 0.0
2016-Jul-22 20:34N 40°38' E 014°23'0 0.0
2016-Jul-22 18:34N 40°38' E 014°23'0 0.0
2016-Jul-22 17:32N 40°38' E 014°23'1111.9
2016-Jul-22 16:34N 40°48' E 014°17'6 5.8
2016-Jul-22 15:34N 40°43' E 014°17'9 9.3
2016-Jul-22 14:33N 40°33' E 014°15'0 0.2
2016-Jul-22 13:33N 40°33' E 014°14'0 0.2
2016-Jul-22 12:34N 40°33' E 014°15'1 1.1
2016-Jul-22 11:33N 40°34' E 014°14'1 1.1
2016-Jul-22 10:34N 40°33' E 014°14'1711.9
2016-Jul-22 09:08N 40°50' E 014°15'1 1.6
2016-Jul-22 08:22N 40°50' E 014°17'1620.4
2016-Jul-22 07:33N 40°33' E 014°14'8 2.5
2016-Jul-22 04:32N 40°38' E 014°23'0 0.0
2016-Jul-22 03:32N 40°38' E 014°23'0 0.0
2016-Jul-22 02:33N 40°38' E 014°23'0 0.0
2016-Jul-22 01:31N 40°38' E 014°23'0 0.0
2016-Jul-22 00:33N 40°38' E 014°23'0 0.0
2016-Jul-21 23:31N 40°38' E 014°23'0 0.0
2016-Jul-21 20:33N 40°38' E 014°23'0 0.0
2016-Jul-21 19:10N 40°38' E 014°23'0 0.0
2016-Jul-21 18:33N 40°38' E 014°23'0 0.0
2016-Jul-21 17:33N 40°38' E 014°23'1212.0
2016-Jul-21 16:34N 40°49' E 014°17'5 5.0
2016-Jul-21 15:34N 40°44' E 014°17'1010.3
2016-Jul-21 14:33N 40°34' E 014°15'0 0.4
2016-Jul-21 13:33N 40°33' E 014°14'2 1.8
2016-Jul-21 12:34N 40°35' E 014°13'0 0.3
2016-Jul-21 11:33N 40°35' E 014°14'2 1.5
2016-Jul-21 10:34N 40°33' E 014°14'1712.9
2016-Jul-21 09:15N 40°50' E 014°15'0 0.0
2016-Jul-21 08:34N 40°50' E 014°15'1715.8
2016-Jul-21 07:30N 40°33' E 014°14'1717.6
2016-Jul-21 06:32N 40°50' E 014°15'9 8.9
2016-Jul-21 05:34N 40°43' E 014°21'5 0.5
2016-Jul-20 19:19N 40°38' E 014°23'0 0.0
2016-Jul-20 18:26N 40°38' E 014°23'0 0.0
2016-Jul-20 17:04N 40°38' E 014°23'1223.3
2016-Jul-20 16:33N 40°49' E 014°17'11 9.5
2016-Jul-20 15:25N 40°38' E 014°16'5 5.8
2016-Jul-20 14:33N 40°34' E 014°15'0 0.3
2016-Jul-20 13:34N 40°33' E 014°14'0 0.4
2016-Jul-20 12:33N 40°34' E 014°15'3 3.2
2016-Jul-20 11:33N 40°31' E 014°16'  

Dump ship's entire track history